Time;durP1;ratioP1;P1;durP2;ratioP2;P2;SDS_P1;SDS_P2;PMS_P1;PMS_P2;Temp;Humidity;BMP_temperature;BMP_pressure;BME280_temperature;BME280_humidity;BME280_pressure;Samples;Min_cycle;Max_cycle;Signal;HPM_P1;HPM_P2
2021/12/31 00:00:09;;;;;;;;;;;;;;;21.45;41.19;96333.47;10444928;28;1758;-47
2021/12/31 00:05:10;;;;;;;;;;;;;;;21.45;41.11;96328.19;10448613;28;1906;-48
2021/12/31 00:10:11;;;;;;;;;;;;;;;21.47;41.10;96326.09;10439134;28;1855;-47
2021/12/31 00:15:12;;;;;;;;;;;;;;;21.47;41.02;96322.66;10444201;28;1950;-45
2021/12/31 00:20:16;;;;;;;;;;;;;;;21.49;40.83;96323.19;10443591;28;1847;-48
2021/12/31 00:25:18;;;;;;;;;;;;;;;21.47;41.00;96328.75;10447735;28;1910;-46
2021/12/31 00:30:19;;;;;;;;;;;;;;;21.47;40.95;96341.13;10447632;28;1869;-48
2021/12/31 00:35:20;;;;;;;;;;;;;;;21.50;40.68;96327.41;10441756;28;1874;-47
2021/12/31 00:40:21;;;;;;;;;;;;;;;21.49;40.65;96331.09;10443121;28;1867;-45
2021/12/31 00:45:22;;;;;;;;;;;;;;;21.47;40.78;96334.00;10440717;28;1945;-45
2021/12/31 00:50:22;;;;;;;;;;;;;;;21.49;40.73;96337.19;10439327;28;1810;-48
2021/12/31 00:55:23;;;;;;;;;;;;;;;21.50;40.56;96332.66;10437778;28;1857;-45
2021/12/31 01:00:24;;;;;;;;;;;;;;;21.50;40.48;96332.66;10440974;28;1823;-46
2021/12/31 01:05:25;;;;;;;;;;;;;;;21.51;40.45;96331.63;10443290;28;1985;-47
2021/12/31 01:10:27;;;;;;;;;;;;;;;21.52;40.49;96341.09;10441373;28;1872;-48
2021/12/31 01:15:39;;;;;;;;;;;;;;;21.51;40.38;96339.53;10440831;28;1830;-45
2021/12/31 01:20:40;;;;;;;;;;;;;;;21.51;40.43;96350.09;10440380;28;1908;-49
2021/12/31 01:25:41;;;;;;;;;;;;;;;21.53;40.39;96353.25;10431512;28;2016;-47
2021/12/31 01:30:41;;;;;;;;;;;;;;;21.53;40.15;96347.97;10445639;28;1810;-48
2021/12/31 01:35:42;;;;;;;;;;;;;;;21.48;40.41;96346.13;10443636;28;1922;-47
2021/12/31 01:40:43;;;;;;;;;;;;;;;21.48;40.23;96351.41;10444135;28;1814;-49
2021/12/31 01:45:47;;;;;;;;;;;;;;;21.49;40.24;96349.56;10445084;28;1970;-48
2021/12/31 01:50:47;;;;;;;;;;;;;;;21.48;40.13;96348.75;10443052;28;2258;-46
2021/12/31 01:55:49;;;;;;;;;;;;;;;21.49;40.01;96347.72;10439672;28;2090;-45
2021/12/31 02:00:50;;;;;;;;;;;;;;;21.50;40.30;96348.50;10440926;28;1999;-47
2021/12/31 02:05:50;;;;;;;;;;;;;;;21.51;40.21;96344.81;10438001;28;1985;-46
2021/12/31 02:10:51;;;;;;;;;;;;;;;21.49;40.10;96344.28;10439150;28;2020;-47
2021/12/31 02:15:52;;;;;;;;;;;;;;;21.48;40.31;96348.75;10430850;28;2070;-49
2021/12/31 02:20:53;;;;;;;;;;;;;;;21.50;40.13;96356.41;10435513;28;2230;-46
2021/12/31 02:25:53;;;;;;;;;;;;;;;21.49;40.09;96353.00;10431639;28;1968;-50
2021/12/31 02:31:00;;;;;;;;;;;;;;;21.50;39.87;96364.31;10439364;28;1928;-46
2021/12/31 02:36:01;;;;;;;;;;;;;;;21.49;40.08;96352.22;10435662;28;1927;-45
2021/12/31 02:41:03;;;;;;;;;;;;;;;21.48;39.92;96361.97;10440315;28;2150;-49
2021/12/31 02:46:03;;;;;;;;;;;;;;;21.49;39.92;96352.22;10443123;28;2004;-48
2021/12/31 02:51:06;;;;;;;;;;;;;;;21.50;40.17;96346.66;10439184;28;1960;-47
2021/12/31 02:56:10;;;;;;;;;;;;;;;21.49;40.10;96347.72;10439932;28;1979;-46
2021/12/31 03:01:12;;;;;;;;;;;;;;;21.49;40.01;96344.28;10441968;28;1947;-48
2021/12/31 03:06:12;;;;;;;;;;;;;;;21.51;39.61;96340.34;10439906;28;2328;-52
2021/12/31 03:11:14;;;;;;;;;;;;;;;21.49;39.80;96337.19;10438328;28;1948;-46
2021/12/31 03:16:15;;;;;;;;;;;;;;;21.47;39.72;96331.38;10439556;28;2054;-46
2021/12/31 03:21:23;;;;;;;;;;;;;;;21.51;39.83;96327.16;10434800;28;1993;-47
2021/12/31 03:26:26;;;;;;;;;;;;;;;21.48;39.93;96332.16;10439153;28;1906;-45
2021/12/31 03:31:27;;;;;;;;;;;;;;;21.50;39.82;96328.19;10440184;28;1971;-48
2021/12/31 03:36:27;;;;;;;;;;;;;;;21.47;39.76;96323.47;10434266;28;1868;-47
2021/12/31 03:41:28;;;;;;;;;;;;;;;21.51;39.84;96318.44;10436615;28;1943;-49
2021/12/31 03:46:28;;;;;;;;;;;;;;;21.49;39.84;96304.72;10433476;28;2086;-46
2021/12/31 03:51:28;;;;;;;;;;;;;;;21.49;39.75;96307.38;10437277;28;2069;-48
2021/12/31 03:56:31;;;;;;;;;;;;;;;21.49;39.73;96304.72;10435934;28;1929;-46
2021/12/31 04:01:32;;;;;;;;;;;;;;;21.49;39.62;96304.72;10439995;28;1941;-50
2021/12/31 04:06:32;;;;;;;;;;;;;;;21.47;39.71;96305.00;10438859;28;1908;-45
2021/12/31 04:11:33;;;;;;;;;;;;;;;21.49;39.82;96304.72;10439298;28;1803;-45
2021/12/31 04:16:33;;;;;;;;;;;;;;;21.50;39.88;96301.00;10437756;28;2359;-49
2021/12/31 04:21:34;;;;;;;;;;;;;;;21.51;39.80;96302.63;10436415;28;1956;-45
2021/12/31 04:26:34;;;;;;;;;;;;;;;21.50;40.04;96287.81;10434239;28;1969;-46
2021/12/31 04:31:35;;;;;;;;;;;;;;;21.50;39.80;96283.34;10435366;28;2003;-49
2021/12/31 04:36:36;;;;;;;;;;;;;;;21.47;39.91;96283.91;10440763;28;1876;-46
2021/12/31 04:41:37;;;;;;;;;;;;;;;21.45;40.05;96283.34;10439750;28;1948;-47
2021/12/31 04:46:37;;;;;;;;;;;;;;;21.43;40.35;96284.69;10441185;28;2211;-47
2021/12/31 04:51:37;;;;;;;;;;;;;;;21.39;40.45;96283.63;10446850;28;1956;-46
2021/12/31 04:56:38;;;;;;;;;;;;;;;21.38;40.29;96277.56;10443715;28;1936;-47
2021/12/31 05:01:38;;;;;;;;;;;;;;;21.36;40.53;96282.31;10445165;28;1936;-45
2021/12/31 05:06:40;;;;;;;;;;;;;;;21.32;40.54;96283.09;10443148;28;1902;-45
2021/12/31 05:11:40;;;;;;;;;;;;;;;21.32;40.51;96285.75;10443368;28;1837;-45
2021/12/31 05:16:40;;;;;;;;;;;;;;;21.32;40.22;96283.91;10438141;28;2008;-45
2021/12/31 05:21:41;;;;;;;;;;;;;;;21.29;40.45;96278.38;10442661;28;1937;-47
2021/12/31 05:26:42;;;;;;;;;;;;;;;21.31;40.27;96277.03;10438241;28;2347;-46
2021/12/31 05:31:42;;;;;;;;;;;;;;;21.28;40.42;96282.84;10444311;28;2250;-48
2021/12/31 05:36:42;;;;;;;;;;;;;;;21.32;40.35;96275.19;10443596;28;1923;-46
2021/12/31 05:41:43;;;;;;;;;;;;;;;21.31;40.12;96277.03;10441790;28;1934;-47
2021/12/31 05:46:48;;;;;;;;;;;;;;;21.35;40.03;96277.31;10444862;28;1955;-45
2021/12/31 05:51:50;;;;;;;;;;;;;;;21.33;39.91;96280.19;10435440;28;2027;-45
2021/12/31 05:56:51;;;;;;;;;;;;;;;21.33;40.04;96272.28;10440928;28;2046;-48
2021/12/31 06:01:51;;;;;;;;;;;;;;;21.37;39.86;96280.47;10443853;28;1972;-49
2021/12/31 06:06:52;;;;;;;;;;;;;;;21.37;39.96;96277.84;10443116;28;2011;-45
2021/12/31 06:11:52;;;;;;;;;;;;;;;21.37;39.95;96275.19;10442795;28;1862;-45
2021/12/31 06:16:53;;;;;;;;;;;;;;;21.39;39.67;96273.84;10440905;28;2071;-46
2021/12/31 06:21:53;;;;;;;;;;;;;;;21.38;39.76;96276.78;10438543;28;2148;-45
2021/12/31 06:26:55;;;;;;;;;;;;;;;21.41;39.63;96284.16;10442541;28;2075;-47
2021/12/31 06:31:55;;;;;;;;;;;;;;;21.42;39.78;96286.53;10444787;28;2106;-47
2021/12/31 06:36:56;;;;;;;;;;;;;;;21.41;39.82;96289.44;10441933;28;1976;-51
2021/12/31 06:41:56;;;;;;;;;;;;;;;21.44;39.75;96296.81;10430279;28;2018;-45
2021/12/31 06:46:57;;;;;;;;;;;;;;;21.47;39.45;96296.28;10440618;28;2010;-48
2021/12/31 06:51:57;;;;;;;;;;;;;;;21.46;39.67;96302.59;10439847;28;1947;-48
2021/12/31 06:56:57;;;;;;;;;;;;;;;21.45;39.61;96308.94;10438222;28;2036;-47
2021/12/31 07:01:58;;;;;;;;;;;;;;;21.47;39.58;96306.84;10440549;28;2027;-45
2021/12/31 07:06:58;;;;;;;;;;;;;;;21.50;39.30;96295.75;10437208;28;1973;-47
2021/12/31 07:11:59;;;;;;;;;;;;;;;21.46;39.62;96286.78;10437166;28;1961;-45
2021/12/31 07:16:59;;;;;;;;;;;;;;;21.49;39.28;96294.97;10437510;28;2002;-45
2021/12/31 07:22:00;;;;;;;;;;;;;;;21.51;39.24;96297.34;10438533;28;1947;-45
2021/12/31 07:27:01;;;;;;;;;;;;;;;21.47;39.48;96296.28;10423491;28;1932;-45
2021/12/31 07:32:01;;;;;;;;;;;;;;;21.50;39.51;96291.25;10438858;28;1995;-45
2021/12/31 07:37:02;;;;;;;;;;;;;;;21.55;39.17;96295.75;10439841;28;1996;-48
2021/12/31 07:42:02;;;;;;;;;;;;;;;21.52;39.49;96291.78;10433709;28;1940;-48
2021/12/31 07:47:03;;;;;;;;;;;;;;;21.52;39.33;96293.63;10440198;28;1973;-45
2021/12/31 07:52:03;;;;;;;;;;;;;;;21.53;39.33;96287.31;10437925;28;2015;-48
2021/12/31 07:57:04;;;;;;;;;;;;;;;21.54;39.42;96297.59;10438439;28;1951;-48
2021/12/31 08:02:04;;;;;;;;;;;;;;;21.56;39.28;96295.47;10438467;28;1929;-46
2021/12/31 08:07:05;;;;;;;;;;;;;;;21.56;39.31;96307.88;10440852;28;1961;-49
2021/12/31 08:12:05;;;;;;;;;;;;;;;21.57;39.04;96310.25;10435557;28;1881;-48
2021/12/31 08:17:06;;;;;;;;;;;;;;;21.58;39.13;96325.00;10438249;28;1957;-47
2021/12/31 08:22:07;;;;;;;;;;;;;;;21.61;39.27;96321.06;10432713;23;3453;-65
2021/12/31 08:27:07;;;;;;;;;;;;;;;21.58;39.40;96319.75;10410912;28;1979;-65
2021/12/31 08:32:07;;;;;;;;;;;;;;;21.59;39.41;96325.81;10407935;28;1877;-67
2021/12/31 08:37:08;;;;;;;;;;;;;;;21.67;39.50;96323.44;10418673;28;1942;-64
2021/12/31 08:42:08;;;;;;;;;;;;;;;21.70;39.99;96327.38;10407176;28;1826;-64
2021/12/31 08:47:09;;;;;;;;;;;;;;;21.73;40.18;96329.47;10412483;28;1911;-65
2021/12/31 08:52:09;;;;;;;;;;;;;;;21.70;40.22;96319.47;10409718;28;1873;-65
2021/12/31 08:57:10;;;;;;;;;;;;;;;21.70;40.27;96317.59;10414331;28;1968;-65
2021/12/31 09:02:11;;;;;;;;;;;;;;;21.68;40.13;96303.88;10408135;28;1858;-65
2021/12/31 09:07:11;;;;;;;;;;;;;;;21.68;40.19;96298.63;10415211;28;2385;-65
2021/12/31 09:12:12;;;;;;;;;;;;;;;21.71;40.67;96302.56;10404781;28;1972;-64
2021/12/31 09:17:12;;;;;;;;;;;;;;;21.70;40.69;96298.38;10416371;28;2212;-62
2021/12/31 09:22:13;;;;;;;;;;;;;;;21.76;40.53;96299.94;10402453;28;1823;-66
2021/12/31 09:27:14;;;;;;;;;;;;;;;21.76;40.59;96313.13;10399007;28;1956;-63
2021/12/31 09:32:14;;;;;;;;;;;;;;;21.77;40.83;96301.50;10396911;28;1946;-65
2021/12/31 09:37:15;;;;;;;;;;;;;;;21.78;40.82;96306.50;10406518;28;1799;-64
2021/12/31 09:42:16;;;;;;;;;;;;;;;21.77;40.90;96317.34;10397437;28;1842;-65
2021/12/31 09:47:16;;;;;;;;;;;;;;;21.75;40.97;96319.44;10406736;28;1965;-64
2021/12/31 09:52:17;;;;;;;;;;;;;;;21.76;40.73;96321.03;10402365;28;1838;-64
2021/12/31 09:57:19;;;;;;;;;;;;;;;21.71;40.68;96315.75;10401636;28;1788;-64
2021/12/31 10:02:32;;;;;;;;;;;;;;;21.73;40.46;96309.16;10404366;28;1861;-64
2021/12/31 10:07:33;;;;;;;;;;;;;;;21.70;40.70;96312.31;10406174;28;1914;-63
2021/12/31 10:12:52;;;;;;;;;;;;;;;21.67;40.69;96318.16;10412169;28;1716;-65
2021/12/31 10:17:53;;;;;;;;;;;;;;;21.65;40.41;96312.34;10399146;28;1783;-65
2021/12/31 10:23:11;;;;;;;;;;;;;;;21.64;40.52;96307.31;10403622;28;1904;-66
2021/12/31 10:28:13;;;;;;;;;;;;;;;21.62;40.60;96290.97;10422103;28;2025;-66
2021/12/31 10:33:13;;;;;;;;;;;;;;;21.63;40.29;96282.00;10400554;28;1716;-65
2021/12/31 10:38:14;;;;;;;;;;;;;;;21.62;40.68;96277.78;10405328;28;1901;-65
2021/12/31 10:43:22;;;;;;;;;;;;;;;21.64;40.23;96270.38;10407943;28;1732;-65
2021/12/31 10:48:36;;;;;;;;;;;;;;;21.64;40.26;96254.56;10403525;28;1995;-65
2021/12/31 10:53:37;;;;;;;;;;;;;;;21.60;40.43;96249.03;10399738;28;1844;-66
2021/12/31 10:58:38;;;;;;;;;;;;;;;21.65;40.10;96245.59;10401931;28;1865;-65
2021/12/31 11:03:39;;;;;;;;;;;;;;;21.62;40.34;96236.38;10405606;28;1819;-65
2021/12/31 11:08:41;;;;;;;;;;;;;;;21.65;40.08;96232.41;10404454;28;1973;-65
2021/12/31 11:13:43;;;;;;;;;;;;;;;21.64;40.43;96238.72;10407226;28;1829;-65
2021/12/31 11:18:44;;;;;;;;;;;;;;;21.64;40.20;96238.72;10395509;28;1972;-65
2021/12/31 11:23:45;;;;;;;;;;;;;;;21.62;40.23;96225.00;10396174;28;1910;-65
2021/12/31 11:28:47;;;;;;;;;;;;;;;21.61;40.04;96216.34;10409875;28;1961;-65
2021/12/31 11:33:48;;;;;;;;;;;;;;;21.61;40.20;96223.44;10397707;28;1826;-65
2021/12/31 11:38:50;;;;;;;;;;;;;;;21.63;40.02;96219.50;10401907;28;1786;-65
2021/12/31 11:44:07;;;;;;;;;;;;;;;21.66;39.87;96218.13;10400903;28;1782;-65
2021/12/31 11:49:08;;;;;;;;;;;;;;;21.64;40.16;96212.34;10394286;28;1980;-65
2021/12/31 11:54:08;;;;;;;;;;;;;;;21.64;39.90;96210.50;10408391;28;2057;-65
2021/12/31 11:59:09;;;;;;;;;;;;;;;21.65;40.11;96208.66;10408687;28;1917;-65
2021/12/31 12:04:23;;;;;;;;;;;;;;;21.64;40.07;96191.25;10403889;28;1789;-66
2021/12/31 12:09:24;;;;;;;;;;;;;;;21.63;40.05;96176.47;10396437;28;2194;-66
2021/12/31 12:14:28;;;;;;;;;;;;;;;21.66;40.11;96178.56;10401677;28;1845;-66
2021/12/31 12:19:50;;;;;;;;;;;;;;;21.66;40.20;96168.00;10387600;28;1866;-65
2021/12/31 12:24:50;;;;;;;;;;;;;;;21.66;40.23;96152.19;10408444;28;1764;-64
2021/12/31 12:29:51;;;;;;;;;;;;;;;21.67;40.05;96157.22;10396062;28;1918;-65
2021/12/31 12:34:52;;;;;;;;;;;;;;;21.67;40.14;96153.78;10401522;28;1833;-66
2021/12/31 12:39:56;;;;;;;;;;;;;;;21.66;40.02;96146.91;10393672;28;1988;-66
2021/12/31 12:45:06;;;;;;;;;;;;;;;21.69;40.27;96151.66;10400529;28;1743;-65
2021/12/31 12:50:09;;;;;;;;;;;;;;;21.68;40.29;96150.06;10400583;28;1919;-65
2021/12/31 12:55:13;;;;;;;;;;;;;;;21.67;40.23;96153.78;10412265;28;1861;-65
2021/12/31 13:00:14;;;;;;;;;;;;;;;21.61;40.25;96154.84;10396155;28;2199;-65
2021/12/31 13:05:15;;;;;;;;;;;;;;;21.60;40.55;96153.25;10405092;28;1750;-66
2021/12/31 13:10:16;;;;;;;;;;;;;;;21.59;40.47;96151.69;10409526;28;1923;-66
2021/12/31 13:15:16;;;;;;;;;;;;;;;21.59;40.41;96149.06;10402581;28;1830;-65
2021/12/31 13:20:21;;;;;;;;;;;;;;;21.62;40.37;96161.69;10410854;28;1825;-66
2021/12/31 13:25:41;;;;;;;;;;;;;;;21.62;40.24;96166.97;10412419;28;1756;-65
2021/12/31 13:30:49;;;;;;;;;;;;;;;21.62;40.30;96164.34;10416760;28;1803;-65
2021/12/31 13:36:09;;;;;;;;;;;;;;;21.68;40.27;96179.88;10413156;28;1815;-64
2021/12/31 13:41:17;;;;;;;;;;;;;;;21.81;39.95;96187.25;10400906;28;1887;-63
2021/12/31 13:46:19;;;;;;;;;;;;;;;21.76;40.50;96181.19;10408997;28;1918;-64
2021/12/31 13:51:30;;;;;;;;;;;;;;;21.75;40.98;96184.88;10402670;28;1806;-64
2021/12/31 13:56:50;;;;;;;;;;;;;;;21.81;41.83;96186.44;10408012;28;1764;-59
2021/12/31 14:02:10;;;;;;;;;;;;;;;21.82;42.40;96188.06;10407465;28;1917;-61
2021/12/31 14:07:16;;;;;;;;;;;;;;;21.81;43.15;96189.91;10407744;28;1918;-60
2021/12/31 14:12:17;;;;;;;;;;;;;;;21.81;43.97;96191.72;10402927;28;1862;-61
2021/12/31 14:17:17;;;;;;;;;;;;;;;21.81;43.54;96191.72;10399484;28;1854;-59
2021/12/31 14:22:18;;;;;;;;;;;;;;;21.79;43.51;96207.81;10400878;28;1806;-64
2021/12/31 14:27:19;;;;;;;;;;;;;;;21.77;43.04;96222.34;10409388;28;1914;-65
2021/12/31 14:32:19;;;;;;;;;;;;;;;21.76;42.99;96204.94;10396932;28;1880;-66
2021/12/31 14:37:20;;;;;;;;;;;;;;;21.75;43.15;96213.91;10402052;28;1880;-64
2021/12/31 14:42:22;;;;;;;;;;;;;;;21.74;42.89;96222.88;10390030;28;1858;-64
2021/12/31 14:47:22;;;;;;;;;;;;;;;21.74;42.95;96192.00;10426065;23;1961;-72
2021/12/31 14:52:25;;;;;;;;;;;;;;;21.75;42.67;96182.22;10421714;28;1856;-73
2021/12/31 14:57:25;;;;;;;;;;;;;;;21.76;42.64;96179.31;10435776;28;1791;-72
2021/12/31 15:02:26;;;;;;;;;;;;;;;21.75;42.46;96172.47;10422713;28;1808;-73
2021/12/31 15:07:27;;;;;;;;;;;;;;;21.75;42.43;96182.22;10442554;28;1914;-69
2021/12/31 15:12:28;;;;;;;;;;;;;;;21.75;42.61;96174.31;10433919;28;1852;-73
2021/12/31 15:17:29;;;;;;;;;;;;;;;21.75;42.37;96167.19;10439991;28;1832;-73
2021/12/31 15:22:29;;;;;;;;;;;;;;;21.78;42.50;96155.31;10422576;28;1870;-73
2021/12/31 15:27:30;;;;;;;;;;;;;;;21.76;43.36;96138.97;10441737;28;1981;-72
2021/12/31 15:32:30;;;;;;;;;;;;;;;21.83;44.41;96142.13;10438778;28;1948;-74
2021/12/31 15:37:31;;;;;;;;;;;;;;;21.84;44.61;96133.91;10419012;28;1923;-72
2021/12/31 15:42:32;;;;;;;;;;;;;;;21.85;44.42;96127.59;10418391;28;2013;-73
2021/12/31 15:47:32;;;;;;;;;;;;;;;21.82;44.55;96120.22;10434620;28;1967;-73
2021/12/31 15:52:33;;;;;;;;;;;;;;;21.80;44.37;96121.53;10424460;28;1780;-73
2021/12/31 15:57:34;;;;;;;;;;;;;;;21.80;44.04;96110.97;10455101;23;2110;-49
2021/12/31 16:02:34;;;;;;;;;;;;;;;21.78;44.21;96113.09;10437798;28;1836;-48
2021/12/31 16:07:35;;;;;;;;;;;;;;;21.77;44.15;96104.38;10439002;28;1966;-47
2021/12/31 16:12:36;;;;;;;;;;;;;;;21.76;44.11;96102.03;10431923;28;1812;-49
2021/12/31 16:17:36;;;;;;;;;;;;;;;21.73;44.05;96087.53;10433056;28;1861;-51
2021/12/31 16:22:37;;;;;;;;;;;;;;;21.72;43.97;96078.00;10423589;28;1820;-48
2021/12/31 16:27:38;;;;;;;;;;;;;;;21.75;43.93;96079.31;10419349;28;1938;-50
2021/12/31 16:32:38;;;;;;;;;;;;;;;21.76;43.85;96092.25;10435389;28;1837;-49
2021/12/31 16:37:39;;;;;;;;;;;;;;;21.72;43.74;96093.09;10435030;28;1853;-48
2021/12/31 16:42:40;;;;;;;;;;;;;;;21.74;43.58;96097.00;10441947;28;1822;-45
2021/12/31 16:47:41;;;;;;;;;;;;;;;21.76;43.37;96094.13;10433719;28;1914;-54
2021/12/31 16:52:42;;;;;;;;;;;;;;;21.75;43.25;96097.78;10435894;28;1959;-48
2021/12/31 16:57:46;;;;;;;;;;;;;;;21.75;43.01;96103.88;10438482;28;1861;-48
2021/12/31 17:02:47;;;;;;;;;;;;;;;21.79;43.02;96125.22;10435661;28;1851;-45
2021/12/31 17:07:48;;;;;;;;;;;;;;;21.80;43.09;96126.81;10432424;28;1979;-48
2021/12/31 17:12:48;;;;;;;;;;;;;;;21.89;43.15;96130.47;10436560;28;1804;-46
2021/12/31 17:17:49;;;;;;;;;;;;;;;21.90;42.93;96129.41;10432852;28;1824;-47
2021/12/31 17:22:50;;;;;;;;;;;;;;;21.86;43.08;96125.75;10440924;28;1848;-48
2021/12/31 17:27:50;;;;;;;;;;;;;;;21.84;43.09;96136.56;10438275;28;1930;-47
2021/12/31 17:32:51;;;;;;;;;;;;;;;21.87;42.95;96132.59;10437738;28;1889;-49
2021/12/31 17:37:52;;;;;;;;;;;;;;;21.82;43.44;96136.03;10436399;28;1840;-49
2021/12/31 17:42:52;;;;;;;;;;;;;;;21.81;43.41;96144.22;10434076;28;1885;-49
2021/12/31 17:47:53;;;;;;;;;;;;;;;21.78;43.13;96150.03;10439364;28;1907;-49
2021/12/31 17:52:54;;;;;;;;;;;;;;;21.77;43.17;96151.09;10439961;28;1855;-48
2021/12/31 17:57:54;;;;;;;;;;;;;;;21.76;42.96;96150.28;10438649;28;1742;-46
2021/12/31 18:02:55;;;;;;;;;;;;;;;21.74;42.87;96143.72;10442534;28;1840;-49
2021/12/31 18:07:56;;;;;;;;;;;;;;;21.71;42.71;96149.53;10441240;28;1985;-48
2021/12/31 18:12:56;;;;;;;;;;;;;;;21.75;42.80;96155.84;10438909;28;1894;-49
2021/12/31 18:17:57;;;;;;;;;;;;;;;21.71;42.40;96160.88;10437138;28;1861;-47
2021/12/31 18:22:58;;;;;;;;;;;;;;;21.71;42.43;96165.38;10435332;28;1782;-46
2021/12/31 18:27:58;;;;;;;;;;;;;;;21.68;42.51;96189.63;10434604;28;1906;-52
2021/12/31 18:32:59;;;;;;;;;;;;;;;21.75;42.28;96198.88;10437825;28;1835;-47
2021/12/31 18:38:00;;;;;;;;;;;;;;;21.67;42.48;96188.88;10436613;28;1893;-44
2021/12/31 18:43:00;;;;;;;;;;;;;;;21.69;42.13;96194.66;10434535;28;1823;-46
2021/12/31 18:48:01;;;;;;;;;;;;;;;21.71;42.11;96205.75;10436507;28;1910;-47
2021/12/31 18:53:03;;;;;;;;;;;;;;;21.73;41.98;96200.19;10437719;28;1808;-46
2021/12/31 18:58:03;;;;;;;;;;;;;;;21.71;41.84;96203.09;10431982;28;1867;-46
2021/12/31 19:03:04;;;;;;;;;;;;;;;21.70;41.99;96213.94;10434134;28;1828;-47
2021/12/31 19:08:05;;;;;;;;;;;;;;;21.73;41.55;96216.03;10436375;28;1964;-49
2021/12/31 19:13:06;;;;;;;;;;;;;;;21.70;41.80;96232.41;10434094;28;1811;-48
2021/12/31 19:18:06;;;;;;;;;;;;;;;21.73;41.60;96253.75;10431146;28;1900;-50
2021/12/31 19:23:08;;;;;;;;;;;;;;;21.74;41.51;96262.47;10435788;28;1782;-48
2021/12/31 19:28:09;;;;;;;;;;;;;;;21.70;41.36;96290.44;10431531;28;1910;-52
2021/12/31 19:33:11;;;;;;;;;;;;;;;21.71;41.54;96308.66;10436606;28;1731;-45
2021/12/31 19:38:12;;;;;;;;;;;;;;;21.71;41.18;96328.97;10440079;28;1781;-49
2021/12/31 19:43:13;;;;;;;;;;;;;;;21.70;41.61;96335.31;10435976;28;1825;-51
2021/12/31 19:48:13;;;;;;;;;;;;;;;21.73;41.47;96358.50;10438376;28;1970;-46
2021/12/31 19:53:14;;;;;;;;;;;;;;;21.71;41.15;96352.72;10431318;28;1807;-50
2021/12/31 19:58:15;;;;;;;;;;;;;;;21.70;41.19;96366.97;10438359;28;1864;-47
2021/12/31 20:03:16;;;;;;;;;;;;;;;21.70;41.11;96386.22;10428279;28;1788;-45
2021/12/31 20:08:16;;;;;;;;;;;;;;;21.74;41.06;96402.31;10431426;28;1909;-45
2021/12/31 20:13:17;;;;;;;;;;;;;;;21.70;41.06;96422.38;10431883;28;1753;-49
2021/12/31 20:18:17;;;;;;;;;;;;;;;21.70;40.84;96435.56;10434966;28;1836;-50
2021/12/31 20:23:18;;;;;;;;;;;;;;;21.69;40.93;96428.69;10454982;28;1789;-48
2021/12/31 20:28:19;;;;;;;;;;;;;;;21.69;41.13;96449.81;10444377;28;1911;-47
2021/12/31 20:33:19;;;;;;;;;;;;;;;21.70;40.84;96459.31;10441681;28;1590;-50
2021/12/31 20:38:20;;;;;;;;;;;;;;;21.72;40.81;96465.13;10446398;28;2168;-45
2021/12/31 20:43:21;;;;;;;;;;;;;;;21.70;40.73;96469.88;10440717;28;1853;-48
2021/12/31 20:48:22;;;;;;;;;;;;;;;21.69;40.62;96474.34;10443918;28;1979;-52
2021/12/31 20:53:22;;;;;;;;;;;;;;;21.71;40.76;96476.72;10441014;28;1825;-51
2021/12/31 20:58:23;;;;;;;;;;;;;;;21.71;40.43;96487.28;10443323;28;1766;-48
2021/12/31 21:03:24;;;;;;;;;;;;;;;21.69;40.61;96494.66;10444050;28;2154;-49
2021/12/31 21:08:24;;;;;;;;;;;;;;;21.72;40.48;96488.88;10443629;28;2055;-46
2021/12/31 21:13:25;;;;;;;;;;;;;;;21.68;40.46;96493.06;10442432;28;1859;-49
2021/12/31 21:18:25;;;;;;;;;;;;;;;21.69;40.37;96479.63;10441536;28;1902;-47
2021/12/31 21:23:26;;;;;;;;;;;;;;;21.66;40.58;96482.78;10437824;28;1853;-51
2021/12/31 21:28:26;;;;;;;;;;;;;;;21.67;40.52;96471.19;10440838;28;1913;-47
2021/12/31 21:33:27;;;;;;;;;;;;;;;21.69;40.35;96484.91;10439626;28;1826;-46
2021/12/31 21:38:28;;;;;;;;;;;;;;;21.69;40.37;96477.00;10438391;28;1861;-48
2021/12/31 21:43:28;;;;;;;;;;;;;;;21.68;40.08;96480.66;10439816;28;1851;-49
2021/12/31 21:48:30;;;;;;;;;;;;;;;21.71;40.24;96482.00;10431734;28;1972;-48
2021/12/31 21:53:31;;;;;;;;;;;;;;;21.70;40.08;96475.94;10440014;28;1862;-48
2021/12/31 21:58:31;;;;;;;;;;;;;;;21.69;40.19;96478.84;10441961;28;1824;-46
2021/12/31 22:03:32;;;;;;;;;;;;;;;21.66;39.95;96477.50;10441009;28;1794;-51
2021/12/31 22:08:33;;;;;;;;;;;;;;;21.70;39.99;96480.44;10439924;28;1982;-50
2021/12/31 22:13:34;;;;;;;;;;;;;;;21.68;40.20;96490.44;10436626;28;1859;-49
2021/12/31 22:18:36;;;;;;;;;;;;;;;21.68;39.96;96498.34;10437177;28;1854;-48
2021/12/31 22:23:36;;;;;;;;;;;;;;;21.69;40.08;96497.31;10433424;28;1826;-49
2021/12/31 22:28:37;;;;;;;;;;;;;;;21.68;39.98;96500.97;10437304;28;1933;-49
2021/12/31 22:33:37;;;;;;;;;;;;;;;21.67;39.72;96505.50;10436696;28;1821;-47
2021/12/31 22:38:38;;;;;;;;;;;;;;;21.67;39.73;96507.31;10435758;28;1846;-50
2021/12/31 22:43:39;;;;;;;;;;;;;;;21.67;39.81;96513.41;10436787;28;1792;-47
2021/12/31 22:48:39;;;;;;;;;;;;;;;21.67;39.49;96518.69;10436227;28;1981;-50
2021/12/31 22:53:40;;;;;;;;;;;;;;;21.67;39.53;96529.25;10437819;28;1826;-48
2021/12/31 22:58:43;;;;;;;;;;;;;;;21.69;39.71;96527.13;10434518;28;1794;-47
2021/12/31 23:03:44;;;;;;;;;;;;;;;21.66;39.58;96522.38;10435569;28;1844;-52
2021/12/31 23:08:45;;;;;;;;;;;;;;;21.67;39.57;96531.06;10436229;28;1918;-50
2021/12/31 23:13:46;;;;;;;;;;;;;;;21.67;39.61;96536.34;10433993;28;1776;-46
2021/12/31 23:18:46;;;;;;;;;;;;;;;21.67;39.52;96531.88;10434856;28;1906;-49
2021/12/31 23:23:47;;;;;;;;;;;;;;;21.65;39.46;96539.25;10431605;28;1799;-45
2021/12/31 23:28:48;;;;;;;;;;;;;;;21.69;39.43;96536.88;10438792;28;1979;-49
2021/12/31 23:33:48;;;;;;;;;;;;;;;21.66;39.43;96546.09;10436232;28;1790;-48
2021/12/31 23:38:51;;;;;;;;;;;;;;;21.64;39.45;96542.94;10436911;28;1833;-50
2021/12/31 23:44:06;;;;;;;;;;;;;;;21.67;39.13;96536.34;10438019;28;1648;-47
2021/12/31 23:49:07;;;;;;;;;;;;;;;21.66;39.50;96546.09;10438198;28;1937;-46
2021/12/31 23:54:08;;;;;;;;;;;;;;;21.62;39.45;96545.03;10435166;28;1796;-47
2021/12/31 23:59:08;;;;;;;;;;;;;;;21.67;39.26;96554.81;10435063;28;1841;-47
